Impacts TAF Board
For situational awareness. Not to be used for flight planning purposes.
IDs:

KMEM - Memphis Intl, TN, US

Issued at 1501 UTC 01 Mar 2021
Updated at 1713 UTC 01 Mar 2021
Potential Impact None Slight Moderate High
Time1654Z 01/18Z 01/19Z 01/20Z 01/21Z 01/22Z 01/23Z 02/00Z 02/01Z 02/02Z 02/03Z 02/04Z 02/05Z 02/06Z>>
Type OBS PRVL PRVL PRVL PRVL PRVL PRVL PRVL PRVL PRVL PRVL PRVL PRVL PRVL
VIS 10 >6 >6 >6 >6 >6 >6 >6 >6 >6 >6 >6 >6 >6
CIG 120 250 250 250 250 250 250 250 250 250 250 250 250 250
Cover OVC OVC OVC OVC OVC OVC OVC BKN BKN BKN BKN BKN BKN BKN
FltCat VFR VFR VFR VFR VFR VFR VFR VFR VFR VFR VFR VFR VFR VFR
WX -- -- -- -- -- -- -- -- -- -- -- -- -- --
WDir 10 20 20 20 20 20 20 50 50 50 50 50 50 50
WSpd 8 11 11 11 11 11 11 6 6 6 6 6 6 6
WGst -- -- -- -- -- -- -- -- -- -- -- -- -- --
Raw TAF
KMEM 011501Z 0115/0218 02011KT P6SM SCT100 OVC250
  FM020000 05006KT P6SM BKN250
  FM021600 08010KT P6SM VCSH BKN040 OVC080


Raw METAR
KMEM 011654Z 01008KT 10SM SCT100 BKN120 OVC200 07/02 A3027 RMK AO2 SLP250 T00720017 $
KMEM 011554Z 02010KT 10SM FEW110 BKN150 OVC250 07/02 A3025 RMK AO2 SLP245 T00720022 $
KMEM 011454Z 01010KT 10SM SCT110 BKN140 OVC250 07/03 A3023 RMK AO2 PRESFR SLP236 T00720033 53031 $

METAR Board
Radar Display
Forecast Discussion
For situational awareness. Not to be used for flight planning purposes.